createdAt,value
2024-02-19T00:01:42.821Z,-1.36
2024-02-19T00:04:18.164Z,-1.34
2024-02-19T00:06:53.593Z,-1.35
2024-02-19T00:09:26.959Z,-1.36
2024-02-19T00:12:01.075Z,-1.34
2024-02-19T00:14:34.645Z,-1.33
2024-02-19T00:17:08.373Z,-1.31
2024-02-19T00:19:42.148Z,-1.29
2024-02-19T00:22:15.756Z,-1.28
2024-02-19T00:24:49.400Z,-1.30
2024-02-19T00:27:23.077Z,-1.28
2024-02-19T00:29:56.400Z,-1.26
2024-02-19T00:32:31.192Z,-1.26
2024-02-19T00:35:06.046Z,-1.27
2024-02-19T00:37:39.399Z,-1.25
2024-02-19T00:40:14.303Z,-1.20
2024-02-19T00:42:47.977Z,-1.15
2024-02-19T00:45:21.446Z,-1.20
2024-02-19T00:47:53.022Z,-1.23
2024-02-19T00:50:26.971Z,-1.23
2024-02-19T00:53:01.356Z,-1.24
2024-02-19T00:55:35.141Z,-1.25
2024-02-19T00:58:09.113Z,-1.21
2024-02-19T01:00:42.587Z,-1.20
2024-02-19T01:03:17.645Z,-1.21
2024-02-19T01:05:51.417Z,-1.23
2024-02-19T01:08:25.712Z,-1.28
2024-02-19T01:10:59.711Z,-1.29
2024-02-19T01:13:32.389Z,-1.26
2024-02-19T01:16:06.567Z,-1.28
2024-02-19T01:18:39.772Z,-1.25
2024-02-19T01:21:12.626Z,-1.26
2024-02-19T01:23:44.887Z,-1.26
2024-02-19T01:26:23.069Z,-1.28
2024-02-19T01:28:55.952Z,-1.30
2024-02-19T01:31:29.163Z,-1.27
2024-02-19T01:34:01.693Z,-1.31
2024-02-19T01:36:34.253Z,-1.29
2024-02-19T01:39:26.553Z,-1.31
2024-02-19T01:42:00.567Z,-1.34
2024-02-19T01:44:33.190Z,-1.34
2024-02-19T01:47:25.344Z,-1.37
2024-02-19T01:49:57.898Z,-1.37
2024-02-19T01:52:30.720Z,-1.40
2024-02-19T01:55:03.293Z,-1.45
2024-02-19T01:57:38.360Z,-1.39
2024-02-19T02:00:14.383Z,-1.48
2024-02-19T02:02:48.136Z,-1.49
2024-02-19T02:05:20.641Z,-1.51
2024-02-19T02:07:54.170Z,-1.58
2024-02-19T02:10:27.045Z,-1.52
2024-02-19T02:13:00.315Z,-1.50
2024-02-19T02:15:32.982Z,-1.52
2024-02-19T02:18:05.869Z,-1.58
2024-02-19T02:20:38.820Z,-1.60
2024-02-19T02:23:11.608Z,-1.63
2024-02-19T02:25:44.224Z,-1.62
2024-02-19T02:28:16.816Z,-1.63
2024-02-19T02:30:50.393Z,-1.70
2024-02-19T02:33:22.823Z,-1.67
2024-02-19T02:35:55.579Z,-1.73
2024-02-19T02:38:27.860Z,-1.72
2024-02-19T02:41:00.571Z,-1.74
2024-02-19T02:43:33.071Z,-1.79
2024-02-19T02:46:05.870Z,-1.83
2024-02-19T02:48:38.527Z,-1.79
2024-02-19T02:51:11.276Z,-1.77
2024-02-19T02:53:43.938Z,-1.78
2024-02-19T02:57:42.626Z,-1.85
2024-02-19T03:00:17.213Z,-1.88
2024-02-19T03:02:52.608Z,-1.93
2024-02-19T03:05:25.034Z,-1.94
2024-02-19T03:07:57.415Z,-1.91
2024-02-19T03:10:30.551Z,-1.89
2024-02-19T03:13:02.932Z,-1.93
2024-02-19T03:15:35.744Z,-1.95
2024-02-19T03:18:09.042Z,-1.90
2024-02-19T03:20:41.566Z,-1.89
2024-02-19T03:23:14.003Z,-1.92
2024-02-19T03:25:46.463Z,-1.92
2024-02-19T03:28:18.835Z,-1.90
2024-02-19T03:30:53.052Z,-1.92
2024-02-19T03:33:25.636Z,-1.93
2024-02-19T03:35:58.151Z,-1.95
2024-02-19T03:38:31.003Z,-1.96
2024-02-19T03:41:03.344Z,-1.95
2024-02-19T03:43:35.864Z,-1.95
2024-02-19T03:46:09.169Z,-1.93
2024-02-19T03:48:41.786Z,-1.97
2024-02-19T03:51:14.424Z,-1.96
2024-02-19T03:53:47.031Z,-1.99
2024-02-19T03:56:19.909Z,-1.96
2024-02-19T03:58:52.643Z,-1.98
2024-02-19T04:01:25.552Z,-1.99
2024-02-19T04:03:58.598Z,-2.02
2024-02-19T04:06:31.293Z,-2.01
2024-02-19T04:09:04.549Z,-2.00
2024-02-19T04:11:37.241Z,-1.99
2024-02-19T04:14:09.811Z,-1.97
2024-02-19T04:16:44.228Z,-2.01
2024-02-19T04:19:18.766Z,-2.02
2024-02-19T04:21:53.433Z,-2.02
2024-02-19T04:24:26.380Z,-2.07
2024-02-19T04:26:58.810Z,-2.08
2024-02-19T04:29:32.968Z,-2.06
2024-02-19T04:32:05.814Z,-2.11
2024-02-19T04:34:40.826Z,-2.08
2024-02-19T04:37:13.755Z,-2.08
2024-02-19T04:39:46.520Z,-2.05
2024-02-19T04:42:19.015Z,-2.06
2024-02-19T04:44:52.512Z,-2.01
2024-02-19T04:47:25.058Z,-1.98
2024-02-19T04:49:57.813Z,-1.93
2024-02-19T04:52:31.008Z,-1.86
2024-02-19T04:55:03.938Z,-1.85
2024-02-19T04:57:36.318Z,-1.83
2024-02-19T05:00:11.613Z,-1.77
2024-02-19T05:02:44.000Z,-1.72
2024-02-19T05:05:16.578Z,-1.69
2024-02-19T05:07:49.653Z,-1.62
2024-02-19T05:10:22.182Z,-1.56
2024-02-19T05:12:55.896Z,-1.54
2024-02-19T05:15:26.470Z,-1.57
2024-02-19T05:17:59.125Z,-1.60
2024-02-19T05:20:31.687Z,-1.55
2024-02-19T05:23:05.351Z,-1.50
2024-02-19T05:25:37.961Z,-1.54
2024-02-19T05:28:10.857Z,-1.51
2024-02-19T05:30:43.382Z,-1.48
2024-02-19T05:33:19.835Z,-1.48
2024-02-19T05:35:52.501Z,-1.42
2024-02-19T05:38:25.648Z,-1.43
2024-02-19T05:40:58.439Z,-1.39
2024-02-19T05:43:30.809Z,-1.42
2024-02-19T05:46:03.266Z,-1.37
2024-02-19T05:48:36.078Z,-1.35
2024-02-19T05:51:09.132Z,-1.30
2024-02-19T05:53:42.266Z,-1.24
2024-02-19T05:56:14.662Z,-1.22
2024-02-19T05:58:47.736Z,-1.19
2024-02-19T06:01:20.524Z,-1.14
2024-02-19T06:03:53.044Z,-1.14
2024-02-19T06:06:27.062Z,-1.14
2024-02-19T06:08:59.617Z,-1.12
2024-02-19T06:11:33.303Z,-1.13
2024-02-19T06:14:03.996Z,-1.07
2024-02-19T06:16:36.663Z,-1.08
2024-02-19T06:19:10.368Z,-1.03
2024-02-19T06:21:43.489Z,-0.95
2024-02-19T06:24:15.919Z,-0.88
2024-02-19T06:26:48.404Z,-0.89
2024-02-19T06:29:20.838Z,-0.87
2024-02-19T06:31:55.903Z,-0.82
2024-02-19T06:34:30.365Z,-0.84
2024-02-19T06:37:03.063Z,-0.80
2024-02-19T06:39:37.545Z,-0.77
2024-02-19T06:42:10.310Z,-0.77
2024-02-19T06:44:43.546Z,-0.75
2024-02-19T06:47:16.024Z,-0.71
2024-02-19T06:49:48.462Z,-0.68
2024-02-19T06:52:24.490Z,-0.66
2024-02-19T06:54:56.917Z,-0.60
2024-02-19T06:57:29.374Z,-0.58
2024-02-19T07:00:01.751Z,-0.53
2024-02-19T07:02:34.362Z,-0.56
2024-02-19T07:05:09.151Z,-0.50
2024-02-19T07:07:42.041Z,-0.45
2024-02-19T07:10:14.940Z,-0.41
2024-02-19T07:12:47.301Z,-0.43
2024-02-19T07:15:19.713Z,-0.46
2024-02-19T07:17:53.655Z,-0.37
2024-02-19T07:20:26.141Z,-0.31
2024-02-19T07:22:58.561Z,-0.32
2024-02-19T07:25:31.334Z,-0.34
2024-02-19T07:28:03.865Z,-0.26
2024-02-19T07:30:38.780Z,-0.18
2024-02-19T07:33:11.649Z,-0.11
2024-02-19T07:35:46.237Z,-0.09
2024-02-19T07:38:19.600Z,-0.16
2024-02-19T07:40:53.610Z,-0.12
2024-02-19T07:43:26.264Z,-0.13
2024-02-19T07:45:59.157Z,-0.12
2024-02-19T07:48:32.294Z,-0.15
2024-02-19T07:51:04.813Z,-0.17
2024-02-19T07:53:37.209Z,-0.16
2024-02-19T07:56:10.632Z,-0.10
2024-02-19T07:58:43.048Z,-0.04
2024-02-19T08:01:15.364Z,-0.01
2024-02-19T08:03:47.793Z,-0.02
2024-02-19T08:06:20.318Z,-0.06
2024-02-19T08:08:52.834Z,-0.09
2024-02-19T08:11:25.835Z,-0.07
2024-02-19T08:13:58.716Z,-0.06
2024-02-19T08:16:31.334Z,-0.04
2024-02-19T08:19:04.315Z,0.01
2024-02-19T08:21:36.846Z,0.03
2024-02-19T08:24:10.286Z,0.04
2024-02-19T08:26:42.672Z,0.03
2024-02-19T08:29:15.143Z,0.06
2024-02-19T08:31:47.456Z,0.12
2024-02-19T08:34:20.131Z,0.09
2024-02-19T08:36:52.824Z,0.10
2024-02-19T08:39:25.805Z,0.08
2024-02-19T08:41:59.940Z,0.08
2024-02-19T08:44:32.582Z,0.07
2024-02-19T08:47:09.382Z,0.07
2024-02-19T08:49:43.204Z,0.13
2024-02-19T08:52:16.112Z,0.15
2024-02-19T08:54:48.526Z,0.22
2024-02-19T08:57:21.668Z,0.26
2024-02-19T08:59:54.327Z,0.31
2024-02-19T09:02:26.930Z,0.36
2024-02-19T09:05:01.164Z,0.45
2024-02-19T09:07:34.484Z,0.51
2024-02-19T09:10:09.697Z,0.55
2024-02-19T09:12:42.375Z,0.61
2024-02-19T09:15:21.698Z,0.60
2024-02-19T09:17:54.483Z,0.70
2024-02-19T09:20:27.089Z,0.76
2024-02-19T09:22:59.293Z,0.80
2024-02-19T09:25:33.024Z,0.79
2024-02-19T09:28:08.599Z,0.83
2024-02-19T09:30:41.351Z,0.83
2024-02-19T09:33:14.109Z,0.89
2024-02-19T09:35:49.339Z,0.93
2024-02-19T09:38:22.978Z,0.92
2024-02-19T09:40:53.552Z,1.00
2024-02-19T09:43:27.612Z,1.02
2024-02-19T09:46:01.323Z,1.09
2024-02-19T09:48:36.754Z,1.10
2024-02-19T09:51:12.771Z,1.12
2024-02-19T09:53:47.572Z,1.12
2024-02-19T09:56:21.033Z,1.19
2024-02-19T09:58:53.936Z,1.27
2024-02-19T10:01:26.978Z,1.31
2024-02-19T10:04:01.512Z,1.38
2024-02-19T10:06:37.833Z,1.43
2024-02-19T10:09:12.971Z,1.51
2024-02-19T10:11:45.467Z,1.52
2024-02-19T10:14:18.649Z,1.56
2024-02-19T10:16:55.292Z,1.64
2024-02-19T10:19:31.343Z,1.68
2024-02-19T10:22:03.873Z,1.69
2024-02-19T10:24:36.304Z,1.74
2024-02-19T10:27:09.919Z,1.82
2024-02-19T10:29:42.812Z,1.92
2024-02-19T10:32:15.451Z,1.96
2024-02-19T10:34:47.840Z,2.03
2024-02-19T10:37:20.555Z,2.10
2024-02-19T10:39:53.289Z,2.19
2024-02-19T10:42:26.167Z,2.30
2024-02-19T10:45:00.653Z,2.39
2024-02-19T10:47:33.690Z,2.48
2024-02-19T10:50:11.317Z,2.57
2024-02-19T10:52:49.585Z,2.66
2024-02-19T10:55:32.140Z,2.68
2024-02-19T10:58:20.700Z,2.74
2024-02-19T11:00:55.148Z,2.87
2024-02-19T11:03:29.148Z,2.86
2024-02-19T11:06:04.532Z,2.89
2024-02-19T11:08:38.428Z,3.02
2024-02-19T11:11:11.317Z,3.16
2024-02-19T11:13:47.152Z,3.14
2024-02-19T11:16:29.136Z,3.15
2024-02-19T11:19:03.888Z,3.19
2024-02-19T11:21:36.339Z,3.24
2024-02-19T11:24:10.348Z,3.32
2024-02-19T11:26:45.752Z,3.39
2024-02-19T11:29:19.714Z,3.51
2024-02-19T11:32:04.149Z,3.59
2024-02-19T11:34:34.977Z,3.68
2024-02-19T11:37:09.225Z,3.67
2024-02-19T11:39:44.081Z,3.72
2024-02-19T11:42:18.158Z,3.80
2024-02-19T11:44:51.210Z,3.88
2024-02-19T11:47:23.731Z,3.93
2024-02-19T11:49:57.478Z,3.98
2024-02-19T11:52:30.100Z,4.04
2024-02-19T11:55:02.625Z,4.07
2024-02-19T11:57:35.384Z,4.09
2024-02-19T12:00:12.983Z,4.17
2024-02-19T12:02:49.548Z,4.27
2024-02-19T12:05:22.264Z,4.34
2024-02-19T12:07:55.715Z,4.38
2024-02-19T12:10:28.835Z,4.43
2024-02-19T12:13:02.005Z,4.41
2024-02-19T12:15:35.102Z,4.51
2024-02-19T12:18:08.231Z,4.60
2024-02-19T12:20:40.642Z,4.68
2024-02-19T12:23:15.936Z,4.74
2024-02-19T12:25:48.397Z,4.81
2024-02-19T12:28:21.829Z,4.86
2024-02-19T12:30:54.367Z,4.88
2024-02-19T12:33:26.888Z,5.02
2024-02-19T12:35:59.504Z,5.07
2024-02-19T12:38:31.910Z,5.12
2024-02-19T12:41:05.763Z,5.18
2024-02-19T12:43:38.719Z,5.23
2024-02-19T12:46:11.870Z,5.29
2024-02-19T12:48:45.919Z,5.32
2024-02-19T12:51:18.506Z,5.36
2024-02-19T12:53:50.842Z,5.33
2024-02-19T12:56:24.013Z,5.39
2024-02-19T12:58:56.318Z,5.43
2024-02-19T13:01:32.649Z,5.46
2024-02-19T13:04:06.263Z,5.50
2024-02-19T13:06:38.824Z,5.54
2024-02-19T13:09:12.325Z,5.58
2024-02-19T13:11:42.924Z,5.56
2024-02-19T13:14:15.289Z,5.54
2024-02-19T13:16:54.736Z,5.57
2024-02-19T13:19:35.108Z,5.59
2024-02-19T13:22:08.178Z,5.58
2024-02-19T13:24:41.278Z,5.59
2024-02-19T13:27:13.780Z,5.59
2024-02-19T13:29:46.473Z,5.56
2024-02-19T13:32:18.932Z,5.55
2024-02-19T13:34:51.436Z,5.55
2024-02-19T13:37:26.422Z,5.53
2024-02-19T13:39:58.968Z,5.56
2024-02-19T13:42:31.390Z,5.62
2024-02-19T13:45:03.880Z,5.62
2024-02-19T13:47:38.639Z,5.61
2024-02-19T13:50:14.160Z,5.63
2024-02-19T13:52:46.899Z,5.64
2024-02-19T13:55:22.433Z,5.68
2024-02-19T13:57:54.915Z,5.72
2024-02-19T14:00:29.811Z,5.75
2024-02-19T14:03:02.450Z,5.72
2024-02-19T14:05:35.139Z,5.71
2024-02-19T14:08:10.336Z,5.74
2024-02-19T14:10:43.555Z,5.77
2024-02-19T14:13:17.675Z,5.81
2024-02-19T14:15:50.320Z,5.90
2024-02-19T14:18:22.887Z,5.97
2024-02-19T14:20:57.984Z,6.00
2024-02-19T14:23:30.964Z,6.04
2024-02-19T14:26:03.358Z,6.09
2024-02-19T14:28:35.769Z,6.09
2024-02-19T14:31:08.441Z,6.09
2024-02-19T14:33:40.917Z,6.07
2024-02-19T14:36:13.920Z,6.08
2024-02-19T14:38:46.437Z,6.08
2024-02-19T14:41:19.043Z,6.08
2024-02-19T14:43:51.514Z,6.08
2024-02-19T14:46:24.179Z,6.09
2024-02-19T14:48:56.944Z,6.11
2024-02-19T14:51:32.417Z,6.10
2024-02-19T14:54:07.423Z,6.09
2024-02-19T14:56:42.700Z,6.13
2024-02-19T14:59:15.493Z,6.14
2024-02-19T15:01:48.355Z,6.13
2024-02-19T15:04:20.923Z,6.16
2024-02-19T15:06:53.464Z,6.16
2024-02-19T15:09:25.876Z,6.15
2024-02-19T15:11:58.206Z,6.13
2024-02-19T15:14:30.631Z,6.13
2024-02-19T15:17:03.169Z,6.12
2024-02-19T15:19:37.426Z,6.12
2024-02-19T15:22:10.174Z,6.10
2024-02-19T15:24:43.003Z,6.06
2024-02-19T15:27:16.334Z,6.08
2024-02-19T15:29:49.013Z,6.09
2024-02-19T15:32:22.994Z,6.09
2024-02-19T15:34:57.007Z,6.06
2024-02-19T15:37:30.244Z,6.05
2024-02-19T15:40:04.226Z,6.04
2024-02-19T15:42:39.020Z,6.02
2024-02-19T15:45:29.387Z,6.03
2024-02-19T15:48:01.708Z,6.03
2024-02-19T15:50:34.041Z,6.01
2024-02-19T15:53:11.163Z,5.97
2024-02-19T15:55:45.544Z,5.97
2024-02-19T15:58:18.764Z,5.96
2024-02-19T16:00:51.562Z,5.97
2024-02-19T16:03:25.158Z,5.98
2024-02-19T16:06:02.641Z,5.98
2024-02-19T16:08:44.596Z,5.95
2024-02-19T16:11:17.098Z,5.95
2024-02-19T16:13:51.065Z,5.92
2024-02-19T16:16:25.649Z,5.90
2024-02-19T16:19:05.931Z,5.91
2024-02-19T16:21:43.909Z,5.91
2024-02-19T16:24:23.983Z,5.90
2024-02-19T16:27:01.701Z,5.93
2024-02-19T16:29:54.918Z,5.97
2024-02-19T16:32:33.122Z,5.96
2024-02-19T16:35:06.551Z,5.99
2024-02-19T16:37:37.575Z,6.00
2024-02-19T16:40:12.682Z,5.98
2024-02-19T16:42:45.608Z,5.98
2024-02-19T16:45:19.177Z,5.90
2024-02-19T16:47:50.219Z,5.89
2024-02-19T16:50:22.741Z,5.83
2024-02-19T16:52:55.992Z,5.83
2024-02-19T16:55:30.273Z,5.84
2024-02-19T16:58:04.865Z,5.83
2024-02-19T17:00:37.979Z,5.84
2024-02-19T17:03:10.813Z,5.83
2024-02-19T17:05:50.221Z,5.79
2024-02-19T17:08:27.354Z,5.80
2024-02-19T17:11:02.726Z,5.76
2024-02-19T17:13:38.571Z,5.73
2024-02-19T17:16:12.813Z,5.67
2024-02-19T17:18:45.354Z,5.65
2024-02-19T17:21:17.640Z,5.61
2024-02-19T17:23:50.316Z,5.56
2024-02-19T17:26:27.018Z,5.53
2024-02-19T17:29:03.156Z,5.54
2024-02-19T17:31:38.018Z,5.51
2024-02-19T17:34:14.240Z,5.50
2024-02-19T17:36:49.645Z,5.48
2024-02-19T17:39:26.764Z,5.47
2024-02-19T17:41:59.264Z,5.47
2024-02-19T17:44:34.094Z,5.46
2024-02-19T17:47:16.871Z,5.44
2024-02-19T17:49:56.914Z,5.44
2024-02-19T17:52:29.929Z,5.42
2024-02-19T17:55:03.901Z,5.41
2024-02-19T17:57:37.911Z,5.39
2024-02-19T18:00:14.253Z,5.39
2024-02-19T18:02:51.604Z,5.38
2024-02-19T18:05:26.000Z,5.34
2024-02-19T18:08:01.246Z,5.31
2024-02-19T18:10:43.436Z,5.28
2024-02-19T18:13:20.389Z,5.26
2024-02-19T18:15:53.533Z,5.25
2024-02-19T18:18:28.344Z,5.24
2024-02-19T18:21:04.899Z,5.23
2024-02-19T18:23:39.425Z,5.23
2024-02-19T18:26:14.418Z,5.21
2024-02-19T18:28:48.954Z,5.22
2024-02-19T18:31:22.607Z,5.22
2024-02-19T18:33:55.249Z,5.21
2024-02-19T18:36:27.926Z,5.21
2024-02-19T18:39:00.218Z,5.24
2024-02-19T18:41:33.661Z,5.23
2024-02-19T18:44:07.815Z,5.25
2024-02-19T18:46:40.389Z,5.25
2024-02-19T18:49:16.339Z,5.24
2024-02-19T18:51:50.030Z,5.23
2024-02-19T18:54:24.055Z,5.22
2024-02-19T18:56:57.011Z,5.21
2024-02-19T18:59:29.822Z,5.21
2024-02-19T19:02:05.308Z,5.20
2024-02-19T19:04:38.344Z,5.20
2024-02-19T19:07:11.058Z,5.19
2024-02-19T19:09:43.356Z,5.17
2024-02-19T19:12:18.751Z,5.17
2024-02-19T19:14:51.082Z,5.17
2024-02-19T19:17:24.135Z,5.16
2024-02-19T19:19:57.094Z,5.16
2024-02-19T19:22:32.420Z,5.15
2024-02-19T19:25:11.461Z,5.14
2024-02-19T19:27:48.709Z,5.13
2024-02-19T19:30:28.330Z,5.13
2024-02-19T19:33:04.794Z,5.12
2024-02-19T19:35:44.862Z,5.09
2024-02-19T19:38:23.393Z,5.09
2024-02-19T19:40:59.993Z,5.08
2024-02-19T19:43:37.597Z,5.06
2024-02-19T19:46:12.689Z,5.07
2024-02-19T19:48:48.227Z,5.09
2024-02-19T19:51:27.176Z,5.07
2024-02-19T19:54:03.760Z,5.06
2024-02-19T19:56:46.072Z,5.04
2024-02-19T19:59:21.304Z,5.03
2024-02-19T20:01:57.370Z,5.02
2024-02-19T20:04:36.200Z,4.98
2024-02-19T20:07:10.480Z,4.99
2024-02-19T20:09:46.186Z,5.00
2024-02-19T20:12:21.753Z,5.01
2024-02-19T20:14:54.391Z,5.02
2024-02-19T20:17:29.789Z,5.00
2024-02-19T20:20:02.524Z,4.99
2024-02-19T20:22:35.256Z,5.01
2024-02-19T20:25:08.766Z,5.03
2024-02-19T20:27:41.929Z,5.03
2024-02-19T20:30:15.879Z,5.03
2024-02-19T20:32:48.386Z,5.04
2024-02-19T20:35:21.281Z,5.03
2024-02-19T20:37:53.767Z,5.03
2024-02-19T20:40:26.533Z,5.05
2024-02-19T20:43:01.405Z,5.03
2024-02-19T20:45:41.839Z,5.01
2024-02-19T20:48:14.322Z,4.99
2024-02-19T20:50:47.693Z,4.97
2024-02-19T20:53:20.053Z,4.95
2024-02-19T20:55:59.365Z,4.96
2024-02-19T20:58:43.970Z,4.94
2024-02-19T21:01:21.439Z,4.95
2024-02-19T21:03:54.435Z,4.96
2024-02-19T21:06:29.231Z,4.97
2024-02-19T21:09:02.373Z,4.98
2024-02-19T21:11:35.016Z,4.96
2024-02-19T21:14:08.614Z,4.96
2024-02-19T21:16:40.967Z,4.98
2024-02-19T21:19:13.411Z,4.93
2024-02-19T21:21:45.932Z,4.94
2024-02-19T21:24:18.398Z,4.97
2024-02-19T21:26:51.934Z,4.94
2024-02-19T21:29:27.706Z,4.91
2024-02-19T21:32:00.257Z,4.89
2024-02-19T21:34:32.679Z,4.89
2024-02-19T21:37:05.808Z,4.89
2024-02-19T21:39:38.198Z,4.87
2024-02-19T21:42:12.926Z,4.86
2024-02-19T21:44:48.059Z,4.84
2024-02-19T21:47:20.696Z,4.84
2024-02-19T21:49:53.371Z,4.82
2024-02-19T21:52:27.191Z,4.80
2024-02-19T21:55:02.978Z,4.77
2024-02-19T21:57:37.434Z,4.74
2024-02-19T22:00:13.382Z,4.72
2024-02-19T22:02:45.883Z,4.72
2024-02-19T22:05:18.445Z,4.71
2024-02-19T22:07:52.214Z,4.68
2024-02-19T22:10:24.540Z,4.67
2024-02-19T22:12:57.050Z,4.68
2024-02-19T22:15:31.719Z,4.70
2024-02-19T22:18:05.379Z,4.68
2024-02-19T22:20:37.867Z,4.72
2024-02-19T22:23:10.319Z,4.68
2024-02-19T22:25:42.891Z,4.68
2024-02-19T22:28:15.243Z,4.72
2024-02-19T22:30:47.699Z,4.75
2024-02-19T22:33:20.176Z,4.77
2024-02-19T22:35:53.031Z,4.77
2024-02-19T22:38:25.299Z,4.77
2024-02-19T22:40:57.835Z,4.78
2024-02-19T22:43:30.815Z,4.76
2024-02-19T22:46:03.292Z,4.73
2024-02-19T22:48:35.633Z,4.72
2024-02-19T22:51:08.727Z,4.73
2024-02-19T22:53:41.197Z,4.74
2024-02-19T22:56:13.589Z,4.74
2024-02-19T22:58:46.101Z,4.75
2024-02-19T23:01:20.746Z,4.75
2024-02-19T23:03:53.171Z,4.74
2024-02-19T23:06:25.587Z,4.73
2024-02-19T23:08:57.992Z,4.74
2024-02-19T23:11:30.441Z,4.76
2024-02-19T23:14:03.050Z,4.75
2024-02-19T23:16:35.621Z,4.76
2024-02-19T23:19:08.466Z,4.73
2024-02-19T23:21:41.402Z,4.72
2024-02-19T23:24:13.768Z,4.74
2024-02-19T23:26:48.064Z,4.74
2024-02-19T23:29:20.753Z,4.74
2024-02-19T23:31:53.203Z,4.70
2024-02-19T23:34:25.757Z,4.71
2024-02-19T23:36:58.513Z,4.70
2024-02-19T23:39:30.931Z,4.71
2024-02-19T23:42:03.248Z,4.71
2024-02-19T23:44:36.073Z,4.67
2024-02-19T23:47:10.109Z,4.68
2024-02-19T23:49:43.451Z,4.66
2024-02-19T23:52:15.917Z,4.59
2024-02-19T23:54:48.388Z,4.57
2024-02-19T23:57:20.824Z,4.52
2024-02-19T23:59:53.012Z,4.47
